createdAt,value
2023-05-12T00:01:44.225Z,12.50
2023-05-12T00:04:12.350Z,12.61
2023-05-12T00:06:41.603Z,12.50
2023-05-12T00:09:09.667Z,12.61
2023-05-12T00:11:37.799Z,12.46
2023-05-12T00:14:05.904Z,12.66
2023-05-12T00:16:33.849Z,12.48
2023-05-12T00:19:01.841Z,12.70
2023-05-12T00:21:29.683Z,12.77
2023-05-12T00:23:58.969Z,12.76
2023-05-12T00:26:26.993Z,12.48
2023-05-12T00:28:54.983Z,12.66
2023-05-12T00:31:22.920Z,12.65
2023-05-12T00:33:51.024Z,12.28
2023-05-12T00:36:18.862Z,12.54
2023-05-12T00:38:46.670Z,12.34
2023-05-12T00:41:16.104Z,12.55
2023-05-12T00:43:43.970Z,12.68
2023-05-12T00:46:12.416Z,12.58
2023-05-12T00:48:40.577Z,12.59
2023-05-12T00:51:09.636Z,12.49
2023-05-12T00:53:48.483Z,12.53
2023-05-12T00:56:21.884Z,12.54
2023-05-12T00:58:49.805Z,12.56
2023-05-12T01:01:18.685Z,12.49
2023-05-12T01:03:49.411Z,12.46
2023-05-12T01:06:22.934Z,12.44
2023-05-12T01:08:51.211Z,12.20
2023-05-12T01:11:21.714Z,12.15
2023-05-12T01:13:49.611Z,12.36
2023-05-12T01:16:19.052Z,12.23
2023-05-12T01:18:51.471Z,12.23
2023-05-12T01:21:20.720Z,12.28
2023-05-12T01:23:53.209Z,12.25
2023-05-12T01:26:22.880Z,12.23
2023-05-12T01:28:52.365Z,12.08
2023-05-12T01:31:21.537Z,12.21
2023-05-12T01:33:49.632Z,12.05
2023-05-12T01:36:18.749Z,12.21
2023-05-12T01:38:46.791Z,12.07
2023-05-12T01:41:14.674Z,12.11
2023-05-12T01:43:43.992Z,12.07
2023-05-12T01:46:12.629Z,12.09
2023-05-12T01:48:43.716Z,12.17
2023-05-12T01:51:11.839Z,12.17
2023-05-12T01:53:40.213Z,12.17
2023-05-12T01:56:08.351Z,12.19
2023-05-12T01:58:37.160Z,12.22
2023-05-12T02:01:06.887Z,12.28
2023-05-12T02:03:34.914Z,12.22
2023-05-12T02:06:02.881Z,12.16
2023-05-12T02:08:31.062Z,12.29
2023-05-12T02:11:06.875Z,12.34
2023-05-12T02:13:35.218Z,12.39
2023-05-12T02:16:03.847Z,12.38
2023-05-12T02:18:33.381Z,12.34
2023-05-12T02:21:01.393Z,12.38
2023-05-12T02:23:30.723Z,12.29
2023-05-12T02:25:59.336Z,12.30
2023-05-12T02:28:27.204Z,12.29
2023-05-12T02:30:55.388Z,12.16
2023-05-12T02:33:24.132Z,12.22
2023-05-12T02:35:53.568Z,12.15
2023-05-12T02:38:21.721Z,12.10
2023-05-12T02:40:50.627Z,12.06
2023-05-12T02:43:18.500Z,12.22
2023-05-12T02:45:46.597Z,12.31
2023-05-12T02:48:14.467Z,11.63
2023-05-12T02:50:43.161Z,12.35
2023-05-12T02:53:12.515Z,12.23
2023-05-12T02:55:40.465Z,12.10
2023-05-12T02:58:09.183Z,12.19
2023-05-12T03:00:38.836Z,12.31
2023-05-12T03:03:06.979Z,12.29
2023-05-12T03:05:34.939Z,12.28
2023-05-12T03:08:03.228Z,12.14
2023-05-12T03:10:32.589Z,12.15
2023-05-12T03:13:00.571Z,12.22
2023-05-12T03:15:28.898Z,12.33
2023-05-12T03:17:56.861Z,12.24
2023-05-12T03:20:24.792Z,12.03
2023-05-12T03:22:52.909Z,11.80
2023-05-12T03:25:20.993Z,11.94
2023-05-12T03:27:50.180Z,11.88
2023-05-12T03:30:18.549Z,11.88
2023-05-12T03:32:47.312Z,11.85
2023-05-12T03:35:15.335Z,11.91
2023-05-12T03:37:43.237Z,11.83
2023-05-12T03:40:12.209Z,11.95
2023-05-12T03:42:40.186Z,11.97
2023-05-12T03:45:11.765Z,11.95
2023-05-12T03:47:40.549Z,11.90
2023-05-12T03:50:09.654Z,12.02
2023-05-12T03:52:38.464Z,12.10
2023-05-12T03:55:07.245Z,12.08
2023-05-12T03:57:36.451Z,11.99
2023-05-12T04:00:05.096Z,12.13
2023-05-12T04:02:42.065Z,12.18
2023-05-12T04:05:10.380Z,12.22
2023-05-12T04:07:38.316Z,12.23
2023-05-12T04:10:07.508Z,12.24
2023-05-12T04:12:35.456Z,12.05
2023-05-12T04:15:03.745Z,12.16
2023-05-12T04:17:31.919Z,11.93
2023-05-12T04:20:01.335Z,12.15
2023-05-12T04:22:29.157Z,12.20
2023-05-12T04:24:57.151Z,12.27
2023-05-12T04:27:25.308Z,12.19
2023-05-12T04:29:53.353Z,12.29
2023-05-12T04:32:22.804Z,12.39
2023-05-12T04:34:51.603Z,12.12
2023-05-12T04:37:22.269Z,12.30
2023-05-12T04:39:50.491Z,12.46
2023-05-12T04:42:18.570Z,12.13
2023-05-12T04:44:46.730Z,12.34
2023-05-12T04:47:15.106Z,12.53
2023-05-12T04:49:42.901Z,12.53
2023-05-12T04:52:10.736Z,12.64
2023-05-12T04:54:39.991Z,12.59
2023-05-12T04:57:08.380Z,12.29
2023-05-12T04:59:36.723Z,12.56
2023-05-12T05:02:05.422Z,12.76
2023-05-12T05:04:33.639Z,12.80
2023-05-12T05:07:02.224Z,12.80
2023-05-12T05:09:30.813Z,12.86
2023-05-12T05:12:00.190Z,12.72
2023-05-12T05:14:28.184Z,12.98
2023-05-12T05:16:57.881Z,12.84
2023-05-12T05:19:39.159Z,13.02
2023-05-12T05:22:13.614Z,12.99
2023-05-12T05:24:41.523Z,12.99
2023-05-12T05:27:11.292Z,13.10
2023-05-12T05:29:39.301Z,12.71
2023-05-12T05:32:08.033Z,13.16
2023-05-12T05:34:36.127Z,13.03
2023-05-12T05:37:04.238Z,13.30
2023-05-12T05:39:32.303Z,13.21
2023-05-12T05:42:00.347Z,13.34
2023-05-12T05:44:29.610Z,13.37
2023-05-12T05:46:58.615Z,13.42
2023-05-12T05:49:28.135Z,13.45
2023-05-12T05:51:57.421Z,13.54
2023-05-12T05:54:25.752Z,13.47
2023-05-12T05:56:53.753Z,13.51
2023-05-12T05:59:21.676Z,13.65
2023-05-12T06:01:51.034Z,13.79
2023-05-12T06:04:18.999Z,13.84
2023-05-12T06:06:47.726Z,13.85
2023-05-12T06:09:15.911Z,13.95
2023-05-12T06:11:43.830Z,14.19
2023-05-12T06:14:12.136Z,14.28
2023-05-12T06:16:40.537Z,13.55
2023-05-12T06:19:11.862Z,14.17
2023-05-12T06:21:40.008Z,14.57
2023-05-12T06:24:08.420Z,14.52
2023-05-12T06:26:37.557Z,14.65
2023-05-12T06:29:07.764Z,14.50
2023-05-12T06:31:36.215Z,14.69
2023-05-12T06:34:04.316Z,14.72
2023-05-12T06:36:33.513Z,14.65
2023-05-12T06:39:01.981Z,14.63
2023-05-12T06:41:29.992Z,14.58
2023-05-12T06:43:58.082Z,15.01
2023-05-12T06:46:28.956Z,14.90
2023-05-12T06:48:56.862Z,15.35
2023-05-12T06:51:24.762Z,15.42
2023-05-12T06:53:54.592Z,15.32
2023-05-12T06:56:23.307Z,15.31
2023-05-12T06:58:53.052Z,15.42
2023-05-12T07:01:21.106Z,15.42
2023-05-12T07:03:48.961Z,15.47
2023-05-12T07:06:16.857Z,15.75
2023-05-12T07:08:44.948Z,15.78
2023-05-12T07:11:19.860Z,15.95
2023-05-12T07:13:48.080Z,15.87
2023-05-12T07:16:16.318Z,15.85
2023-05-12T07:18:44.549Z,16.37
2023-05-12T07:21:13.365Z,16.28
2023-05-12T07:23:41.531Z,16.36
2023-05-12T07:26:09.666Z,16.36
2023-05-12T07:28:39.072Z,16.51
2023-05-12T07:31:08.750Z,16.19
2023-05-12T07:33:37.591Z,16.53
2023-05-12T07:36:05.900Z,16.53
2023-05-12T07:38:33.898Z,16.95
2023-05-12T07:41:02.057Z,17.05
2023-05-12T07:43:29.984Z,17.03
2023-05-12T07:46:00.993Z,16.84
2023-05-12T07:48:28.946Z,16.85
2023-05-12T07:50:57.462Z,16.82
2023-05-12T07:53:25.414Z,16.79
2023-05-12T07:55:53.224Z,16.87
2023-05-12T07:58:21.023Z,16.85
2023-05-12T08:00:48.951Z,16.78
2023-05-12T08:03:18.318Z,16.81
2023-05-12T08:05:46.251Z,17.01
2023-05-12T08:08:16.674Z,17.46
2023-05-12T08:10:44.857Z,17.78
2023-05-12T08:13:12.762Z,17.95
2023-05-12T08:15:42.899Z,16.45
2023-05-12T08:18:10.798Z,18.18
2023-05-12T08:20:40.145Z,18.29
2023-05-12T08:23:08.143Z,18.09
2023-05-12T08:25:37.556Z,17.98
2023-05-12T08:28:05.557Z,17.31
2023-05-12T08:30:33.407Z,18.09
2023-05-12T08:33:01.666Z,18.45
2023-05-12T08:35:29.642Z,18.01
2023-05-12T08:37:59.610Z,18.19
2023-05-12T08:40:31.433Z,18.33
2023-05-12T08:43:08.661Z,18.20
2023-05-12T08:45:38.434Z,18.45
2023-05-12T08:48:10.852Z,18.24
2023-05-12T08:50:39.977Z,17.87
2023-05-12T08:53:11.811Z,18.14
2023-05-12T08:55:50.825Z,18.29
2023-05-12T08:58:37.817Z,18.05
2023-05-12T09:01:08.622Z,18.32
2023-05-12T09:03:36.564Z,18.03
2023-05-12T09:06:06.817Z,18.03
2023-05-12T09:08:36.707Z,18.18
2023-05-12T09:11:04.950Z,18.40
2023-05-12T09:13:40.939Z,17.54
2023-05-12T09:16:12.545Z,17.98
2023-05-12T09:18:49.113Z,17.87
2023-05-12T09:21:17.047Z,18.17
2023-05-12T09:23:55.483Z,18.63
2023-05-12T09:26:24.026Z,18.70
2023-05-12T09:28:54.887Z,19.01
2023-05-12T09:31:24.196Z,18.51
2023-05-12T09:33:53.050Z,18.96
2023-05-12T09:36:21.573Z,18.52
2023-05-12T09:39:04.852Z,18.77
2023-05-12T09:41:35.998Z,18.76
2023-05-12T09:44:04.102Z,18.68
2023-05-12T09:46:32.535Z,19.07
2023-05-12T09:49:01.096Z,19.01
2023-05-12T09:51:29.303Z,18.85
2023-05-12T09:53:57.176Z,19.15
2023-05-12T09:56:28.972Z,19.05
2023-05-12T09:58:58.165Z,18.81
2023-05-12T10:01:27.717Z,18.80
2023-05-12T10:03:58.415Z,18.91
2023-05-12T10:06:28.187Z,19.53
2023-05-12T10:09:03.612Z,18.64
2023-05-12T10:11:33.367Z,19.48
2023-05-12T10:14:01.674Z,19.65
2023-05-12T10:16:30.064Z,19.63
2023-05-12T10:18:57.916Z,19.46
2023-05-12T10:21:26.592Z,19.50
2023-05-12T10:23:55.293Z,19.54
2023-05-12T10:26:23.269Z,19.45
2023-05-12T10:28:53.318Z,19.36
2023-05-12T10:31:22.282Z,19.50
2023-05-12T10:33:58.111Z,19.50
2023-05-12T10:36:26.200Z,19.57
2023-05-12T10:38:54.760Z,19.83
2023-05-12T10:41:32.760Z,19.86
2023-05-12T10:44:02.561Z,19.26
2023-05-12T10:46:30.938Z,20.02
2023-05-12T10:49:00.792Z,19.99
2023-05-12T10:51:31.103Z,19.87
2023-05-12T10:54:01.099Z,20.14
2023-05-12T10:56:31.030Z,20.40
2023-05-12T10:59:12.804Z,20.25
2023-05-12T11:01:42.970Z,20.09
2023-05-12T11:04:16.345Z,20.61
2023-05-12T11:06:47.027Z,20.25
2023-05-12T11:09:17.511Z,20.48
2023-05-12T11:11:46.090Z,20.52
2023-05-12T11:14:15.742Z,20.59
2023-05-12T11:16:44.446Z,20.24
2023-05-12T11:19:13.894Z,20.51
2023-05-12T11:21:42.408Z,20.57
2023-05-12T11:24:14.655Z,19.87
2023-05-12T11:26:42.572Z,19.93
2023-05-12T11:29:10.772Z,20.63
2023-05-12T11:31:40.073Z,20.82
2023-05-12T11:34:13.017Z,20.94
2023-05-12T11:36:43.430Z,20.99
2023-05-12T11:39:16.610Z,20.73
2023-05-12T11:41:44.785Z,21.18
2023-05-12T11:44:17.393Z,20.92
2023-05-12T11:46:57.469Z,20.93
2023-05-12T11:49:25.741Z,19.90
2023-05-12T11:51:54.941Z,20.72
2023-05-12T11:54:24.191Z,20.90
2023-05-12T11:56:53.684Z,21.05
2023-05-12T11:59:29.744Z,20.59
2023-05-12T12:02:00.328Z,20.98
2023-05-12T12:04:36.381Z,21.06
2023-05-12T12:07:05.255Z,21.05
2023-05-12T12:09:37.711Z,21.22
2023-05-12T12:12:06.978Z,21.35
2023-05-12T12:14:37.144Z,21.44
2023-05-12T12:17:06.324Z,21.33
2023-05-12T12:19:34.206Z,21.28
2023-05-12T12:22:02.045Z,21.53
2023-05-12T12:24:29.922Z,21.33
2023-05-12T12:26:57.768Z,21.24
2023-05-12T12:29:28.310Z,21.17
2023-05-12T12:31:56.864Z,21.16
2023-05-12T12:34:25.965Z,21.04
2023-05-12T12:36:53.950Z,21.12
2023-05-12T12:39:23.252Z,20.98
2023-05-12T12:41:51.252Z,20.68
2023-05-12T12:44:19.054Z,20.95
2023-05-12T12:46:47.165Z,21.07
2023-05-12T12:49:14.955Z,21.31
2023-05-12T12:51:46.682Z,21.15
2023-05-12T12:54:15.363Z,21.15
2023-05-12T12:56:44.122Z,21.08
2023-05-12T12:59:11.977Z,21.46
2023-05-12T13:01:40.007Z,21.42
2023-05-12T13:04:07.876Z,21.47
2023-05-12T13:06:35.755Z,21.46
2023-05-12T13:09:05.568Z,21.16
2023-05-12T13:11:33.568Z,21.37
2023-05-12T13:14:02.343Z,21.15
2023-05-12T13:16:30.980Z,21.45
2023-05-12T13:18:58.938Z,21.20
2023-05-12T13:21:27.023Z,21.09
2023-05-12T13:23:54.962Z,21.33
2023-05-12T13:26:24.694Z,21.30
2023-05-12T13:28:52.688Z,21.55
2023-05-12T13:31:20.866Z,21.44
2023-05-12T13:33:48.778Z,21.49
2023-05-12T13:36:16.738Z,21.40
2023-05-12T13:38:46.716Z,21.05
2023-05-12T13:41:14.781Z,21.52
2023-05-12T13:43:44.203Z,21.75
2023-05-12T13:46:12.154Z,20.13
2023-05-12T13:48:39.926Z,21.50
2023-05-12T13:51:07.769Z,21.62
2023-05-12T13:53:38.394Z,21.42
2023-05-12T13:56:15.718Z,21.41
2023-05-12T13:58:45.191Z,21.34
2023-05-12T14:01:13.088Z,21.43
2023-05-12T14:03:42.104Z,21.54
2023-05-12T14:06:10.738Z,21.16
2023-05-12T14:08:38.660Z,21.25
2023-05-12T14:11:06.670Z,21.40
2023-05-12T14:13:34.870Z,21.22
2023-05-12T14:16:04.191Z,20.91
2023-05-12T14:18:32.327Z,21.24
2023-05-12T14:21:00.416Z,21.19
2023-05-12T14:23:28.328Z,21.51
2023-05-12T14:25:56.479Z,21.12
2023-05-12T14:28:24.503Z,21.46
2023-05-12T14:30:53.633Z,21.17
2023-05-12T14:33:22.868Z,21.32
2023-05-12T14:36:03.201Z,21.68
2023-05-12T14:38:34.151Z,21.40
2023-05-12T14:41:01.953Z,21.46
2023-05-12T14:43:29.730Z,22.09
2023-05-12T14:45:57.727Z,21.95
2023-05-12T14:48:27.203Z,21.94
2023-05-12T14:50:55.561Z,21.62
2023-05-12T14:53:24.502Z,21.53
2023-05-12T14:55:53.001Z,21.29
2023-05-12T14:58:21.975Z,21.25
2023-05-12T15:00:52.028Z,20.82
2023-05-12T15:03:21.073Z,20.72
2023-05-12T15:08:21.887Z,21.27
2023-05-12T15:10:49.878Z,21.17
2023-05-12T15:13:20.351Z,21.22
2023-05-12T15:15:48.467Z,20.74
2023-05-12T15:18:16.516Z,21.55
2023-05-12T15:20:44.423Z,21.43
2023-05-12T15:23:13.705Z,21.64
2023-05-12T15:25:42.166Z,21.84
2023-05-12T15:28:09.986Z,21.40
2023-05-12T15:30:37.813Z,21.48
2023-05-12T15:33:06.187Z,21.27
2023-05-12T15:35:34.312Z,21.28
2023-05-12T15:38:02.395Z,21.28
2023-05-12T15:40:31.579Z,21.26
2023-05-12T15:42:59.382Z,21.42
2023-05-12T15:45:27.265Z,21.26
2023-05-12T15:47:56.392Z,21.43
2023-05-12T15:50:24.562Z,21.44
2023-05-12T15:52:52.547Z,21.64
2023-05-12T15:55:20.741Z,21.75
2023-05-12T15:57:50.102Z,21.67
2023-05-12T16:00:19.522Z,21.41
2023-05-12T16:02:47.752Z,21.41
2023-05-12T16:05:16.201Z,21.46
2023-05-12T16:07:44.121Z,21.73
2023-05-12T16:10:12.008Z,21.70
2023-05-12T16:12:40.068Z,21.34
2023-05-12T16:15:11.529Z,21.39
2023-05-12T16:17:39.376Z,21.29
2023-05-12T16:20:09.316Z,21.30
2023-05-12T16:22:37.615Z,21.44
2023-05-12T16:25:06.697Z,21.20
2023-05-12T16:27:36.621Z,21.41
2023-05-12T16:30:04.865Z,21.28
2023-05-12T16:32:34.041Z,21.46
2023-05-12T16:35:01.899Z,21.39
2023-05-12T16:37:29.752Z,21.48
2023-05-12T16:39:57.558Z,20.67
2023-05-12T16:42:25.491Z,21.42
2023-05-12T16:44:54.506Z,21.54
2023-05-12T16:47:22.676Z,21.31
2023-05-12T16:49:55.289Z,21.37
2023-05-12T16:52:23.101Z,21.05
2023-05-12T16:54:51.055Z,21.16
2023-05-12T16:57:19.088Z,21.25
2023-05-12T16:59:48.276Z,21.05
2023-05-12T17:02:16.513Z,21.14
2023-05-12T17:04:44.758Z,21.11
2023-05-12T17:07:13.944Z,21.13
2023-05-12T17:09:41.819Z,20.94
2023-05-12T17:12:10.876Z,20.97
2023-05-12T17:14:38.723Z,20.91
2023-05-12T17:17:06.887Z,21.08
2023-05-12T17:19:35.259Z,21.05
2023-05-12T17:22:03.846Z,20.93
2023-05-12T17:24:33.469Z,21.03
2023-05-12T17:27:01.367Z,21.11
2023-05-12T17:29:29.455Z,20.92
2023-05-12T17:31:57.388Z,20.89
2023-05-12T17:34:25.216Z,20.80
2023-05-12T17:36:53.071Z,20.91
2023-05-12T17:39:21.143Z,20.46
2023-05-12T17:41:50.338Z,21.05
2023-05-12T17:44:18.189Z,20.45
2023-05-12T17:46:46.092Z,20.87
2023-05-12T17:49:13.958Z,20.97
2023-05-12T17:51:41.749Z,20.11
2023-05-12T17:54:09.531Z,20.78
2023-05-12T17:56:37.596Z,20.54
2023-05-12T17:59:07.154Z,20.73
2023-05-12T18:01:35.016Z,20.77
2023-05-12T18:04:03.030Z,20.54
2023-05-12T18:06:32.079Z,20.67
2023-05-12T18:08:59.938Z,20.56
2023-05-12T18:11:29.116Z,20.21
2023-05-12T18:13:56.906Z,20.28
2023-05-12T18:16:29.513Z,20.20
2023-05-12T18:18:58.464Z,20.15
2023-05-12T18:21:26.803Z,19.87
2023-05-12T18:23:54.977Z,19.99
2023-05-12T18:26:22.957Z,19.83
2023-05-12T18:28:50.819Z,20.00
2023-05-12T18:31:20.028Z,19.94
2023-05-12T18:33:49.685Z,19.66
2023-05-12T18:36:18.081Z,19.51
2023-05-12T18:38:47.172Z,19.90
2023-05-12T18:41:15.259Z,19.78
2023-05-12T18:43:44.740Z,19.67
2023-05-12T18:46:12.764Z,19.10
2023-05-12T18:48:40.699Z,19.46
2023-05-12T18:51:10.081Z,19.41
2023-05-12T18:53:37.899Z,19.27
2023-05-12T18:56:06.215Z,19.02
2023-05-12T18:58:33.999Z,18.81
2023-05-12T19:01:01.981Z,18.64
2023-05-12T19:03:31.690Z,18.15
2023-05-12T19:05:59.552Z,17.49
2023-05-12T19:08:28.711Z,17.98
2023-05-12T19:10:56.534Z,17.77
2023-05-12T19:13:24.319Z,17.84
2023-05-12T19:15:52.184Z,17.56
2023-05-12T19:18:20.052Z,17.61
2023-05-12T19:20:48.240Z,17.44
2023-05-12T19:23:16.173Z,17.27
2023-05-12T19:25:45.461Z,17.15
2023-05-12T19:28:13.185Z,16.96
2023-05-12T19:30:41.217Z,17.10
2023-05-12T19:33:09.184Z,16.94
2023-05-12T19:35:37.028Z,16.95
2023-05-12T19:38:04.930Z,16.83
2023-05-12T19:40:33.249Z,16.48
2023-05-12T19:43:02.537Z,16.48
2023-05-12T19:45:30.405Z,16.32
2023-05-12T19:47:58.455Z,16.36
2023-05-12T19:50:26.336Z,16.26
2023-05-12T19:52:54.209Z,15.72
2023-05-12T19:55:22.336Z,16.03
2023-05-12T19:57:51.738Z,15.32
2023-05-12T20:00:22.158Z,15.94
2023-05-12T20:02:50.469Z,15.89
2023-05-12T20:05:18.962Z,15.77
2023-05-12T20:07:48.444Z,15.70
2023-05-12T20:10:16.351Z,15.53
2023-05-12T20:12:44.216Z,15.48
2023-05-12T20:15:12.617Z,14.92
2023-05-12T20:17:41.790Z,15.09
2023-05-12T20:20:12.077Z,15.46
2023-05-12T20:22:39.902Z,15.30
2023-05-12T20:25:08.154Z,15.14
2023-05-12T20:27:35.971Z,15.09
2023-05-12T20:30:03.788Z,14.79
2023-05-12T20:32:32.114Z,14.74
2023-05-12T20:35:01.324Z,14.69
2023-05-12T20:37:29.165Z,14.31
2023-05-12T20:39:57.011Z,14.66
2023-05-12T20:42:24.818Z,14.79
2023-05-12T20:44:52.612Z,14.73
2023-05-12T20:47:20.463Z,14.72
2023-05-12T20:49:48.455Z,14.72
2023-05-12T20:52:17.638Z,14.67
2023-05-12T20:54:45.547Z,14.36
2023-05-12T20:57:13.333Z,14.53
2023-05-12T20:59:41.422Z,14.51
2023-05-12T21:02:10.708Z,14.54
2023-05-12T21:04:38.570Z,14.45
2023-05-12T21:07:06.751Z,14.30
2023-05-12T21:09:36.057Z,12.09
2023-05-12T21:12:04.154Z,14.06
2023-05-12T21:14:31.927Z,13.98
2023-05-12T21:16:59.851Z,13.96
2023-05-12T21:19:27.851Z,13.60
2023-05-12T21:21:55.607Z,13.78
2023-05-12T21:24:23.622Z,13.76
2023-05-12T21:26:52.780Z,13.94
2023-05-12T21:29:20.594Z,13.25
2023-05-12T21:31:48.512Z,13.90
2023-05-12T21:34:16.719Z,13.64
2023-05-12T21:36:44.746Z,13.62
2023-05-12T21:39:12.585Z,13.51
2023-05-12T21:41:40.800Z,13.44
2023-05-12T21:44:11.181Z,13.33
2023-05-12T21:46:39.512Z,13.36
2023-05-12T21:49:07.543Z,13.37
2023-05-12T21:51:35.348Z,13.29
2023-05-12T21:54:03.122Z,13.28
2023-05-12T21:56:31.031Z,13.27
2023-05-12T21:58:58.846Z,13.24
2023-05-12T22:01:28.126Z,13.11
2023-05-12T22:03:55.984Z,13.06
2023-05-12T22:06:23.785Z,13.02
2023-05-12T22:08:51.635Z,12.82
2023-05-12T22:11:19.489Z,12.96
2023-05-12T22:13:47.376Z,12.99
2023-05-12T22:16:15.304Z,12.85
2023-05-12T22:18:45.133Z,12.84
2023-05-12T22:21:13.579Z,12.92
2023-05-12T22:23:42.159Z,12.84
2023-05-12T22:26:10.279Z,12.77
2023-05-12T22:28:38.230Z,12.72
2023-05-12T22:31:06.141Z,12.65
2023-05-12T22:33:34.944Z,12.62
2023-05-12T22:36:04.231Z,12.73
2023-05-12T22:38:32.005Z,12.35
2023-05-12T22:40:59.739Z,12.53
2023-05-12T22:43:28.047Z,12.59
2023-05-12T22:45:56.469Z,12.50
2023-05-12T22:48:25.021Z,12.34
2023-05-12T22:50:54.966Z,12.37
2023-05-12T22:53:24.141Z,12.30
2023-05-12T22:55:51.925Z,12.35
2023-05-12T22:58:19.667Z,12.35
2023-05-12T23:00:47.570Z,12.36
2023-05-12T23:03:15.383Z,12.39
2023-05-12T23:05:43.169Z,12.39
2023-05-12T23:08:10.999Z,12.35
2023-05-12T23:10:40.105Z,11.69
2023-05-12T23:13:07.934Z,12.14
2023-05-12T23:15:35.860Z,11.96
2023-05-12T23:18:03.618Z,11.97
2023-05-12T23:20:31.860Z,11.96
2023-05-12T23:22:59.602Z,11.71
2023-05-12T23:25:27.404Z,11.91
2023-05-12T23:27:56.687Z,11.90
2023-05-12T23:30:24.764Z,11.97
2023-05-12T23:32:52.642Z,11.96
2023-05-12T23:35:20.782Z,11.71
2023-05-12T23:37:48.582Z,11.91
2023-05-12T23:40:16.487Z,11.86
2023-05-12T23:42:44.175Z,11.88
2023-05-12T23:45:13.835Z,11.87
2023-05-12T23:47:41.721Z,11.69
2023-05-12T23:50:10.326Z,11.81
2023-05-12T23:52:38.120Z,11.58
2023-05-12T23:55:06.746Z,11.55
2023-05-12T23:57:34.556Z,11.36
